Time;durP1;ratioP1;P1;durP2;ratioP2;P2;SDS_P1;SDS_P2;PMS_P1;PMS_P2;Temp;Humidity;BMP_temperature;BMP_pressure;BME280_temperature;BME280_humidity;BME280_pressure;Samples;Min_cycle;Max_cycle;Signal;HPM_P1;HPM_P2
2023/08/05 00:00:45;;;;;;;7.40;6.80;;;;;;;26.54;58.18;100405.20;108486;1281;21991;-59
2023/08/05 00:03:10;;;;;;;6.10;5.50;;;;;;;26.46;58.49;100407.41;108457;1270;21982;-60
2023/08/05 00:05:37;;;;;;;5.60;5.00;;;;;;;26.39;58.90;100408.13;108522;1271;21966;-60
2023/08/05 00:08:04;;;;;;;5.20;4.70;;;;;;;26.35;59.51;100406.33;108430;1276;21990;-59
2023/08/05 00:10:30;;;;;;;5.50;4.90;;;;;;;26.33;59.96;100408.45;108524;1273;21976;-70
2023/08/05 00:12:56;;;;;;;5.40;4.80;;;;;;;26.35;59.96;100407.22;108491;1277;21980;-59
2023/08/05 00:15:22;;;;;;;7.20;6.50;;;;;;;26.39;60.34;100402.73;108487;1274;22000;-70
2023/08/05 00:17:48;;;;;;;6.90;6.10;;;;;;;26.42;60.53;100402.54;108433;1277;21985;-59
2023/08/05 00:20:13;;;;;;;7.40;6.60;;;;;;;26.41;60.58;100399.13;108428;1277;21984;-70
2023/08/05 00:22:39;;;;;;;7.10;6.40;;;;;;;26.45;60.80;100396.52;108430;1280;22169;-72
2023/08/05 00:25:05;;;;;;;10.40;7.30;;;;;;;26.50;60.81;100391.27;108449;1276;22005;-66
2023/08/05 00:27:31;;;;;;;8.00;7.20;;;;;;;26.53;61.06;100389.73;108511;1277;21979;-71
2023/08/05 00:29:57;;;;;;;8.00;7.20;;;;;;;26.54;60.98;100388.63;108410;1280;22077;-59
2023/08/05 00:32:22;;;;;;;7.30;6.60;;;;;;;26.51;60.86;100391.06;108356;1277;22026;-60
2023/08/05 00:34:48;;;;;;;6.30;5.70;;;;;;;26.48;60.95;100390.40;108364;1280;21981;-72
2023/08/05 00:37:13;;;;;;;7.50;6.70;;;;;;;26.48;61.04;100387.86;108386;1282;21994;-71
2023/08/05 00:39:39;;;;;;;9.60;8.20;;;;;;;26.50;61.16;100385.01;108353;1276;21998;-71
2023/08/05 00:42:05;;;;;;;9.20;8.30;;;;;;;26.50;61.27;100380.48;108388;1277;21994;-60
2023/08/05 00:44:31;;;;;;;8.60;7.30;;;;;;;26.47;61.20;100378.38;108708;1273;23709;-59
2023/08/05 00:46:56;;;;;;;6.90;6.20;;;;;;;26.43;60.91;100379.77;108373;1276;22449;-72
2023/08/05 00:49:22;;;;;;;7.90;6.80;;;;;;;26.41;60.93;100380.48;108384;1277;21994;-71
2023/08/05 00:51:48;;;;;;;10.60;8.10;;;;;;;26.39;60.84;100378.86;108212;1280;21995;-59
2023/08/05 00:54:13;;;;;;;10.80;9.70;;;;;;;26.35;60.81;100381.13;108353;1277;21992;-60
2023/08/05 00:56:39;;;;;;;10.20;9.20;;;;;;;26.32;61.14;100382.80;108206;1277;22156;-59
2023/08/05 00:59:04;;;;;;;9.50;8.60;;;;;;;26.29;61.23;100383.38;108371;1282;21998;-59
2023/08/05 01:01:30;;;;;;;10.10;9.10;;;;;;;26.28;61.33;100381.85;108259;1282;21992;-60
2023/08/05 01:03:55;;;;;;;9.90;8.90;;;;;;;26.24;61.27;100379.44;108411;1273;21977;-60
2023/08/05 01:06:21;;;;;;;9.80;8.60;;;;;;;26.18;61.24;100374.70;108255;1273;21988;-73
2023/08/05 01:08:47;;;;;;;8.70;7.80;;;;;;;26.10;61.29;100373.51;108371;1282;21985;-73
2023/08/05 01:11:13;;;;;;;8.00;7.10;;;;;;;26.02;61.39;100375.55;108347;1277;21994;-73
2023/08/05 01:13:42;;;;;;;9.10;8.20;;;;;;;25.96;61.59;100375.47;108348;1282;21983;-73
2023/08/05 01:16:08;;;;;;;10.30;8.20;;;;;;;25.92;61.93;100374.13;108387;1276;21988;-60
2023/08/05 01:18:35;;;;;;;8.30;7.50;;;;;;;25.91;62.39;100372.98;108399;1279;21985;-60
2023/08/05 01:21:00;;;;;;;8.10;6.80;;;;;;;25.92;62.64;100370.91;108411;1282;21989;-60
2023/08/05 01:23:37;;;;;;;8.10;7.30;;;;;;;25.94;62.70;100368.77;108385;1276;22014;-61
2023/08/05 01:26:04;;;;;;;8.10;7.30;;;;;;;25.97;62.91;100371.30;108390;1280;21981;-59
2023/08/05 01:28:31;;;;;;;9.40;8.40;;;;;;;25.97;62.99;100374.16;108361;1282;21989;-73
2023/08/05 01:30:56;;;;;;;9.40;8.40;;;;;;;25.99;63.29;100373.83;108379;1282;22025;-60
2023/08/05 01:33:22;;;;;;;9.90;8.20;;;;;;;26.00;63.30;100371.03;108425;1282;21997;-59
2023/08/05 01:35:51;;;;;;;10.10;9.10;;;;;;;26.01;63.62;100370.59;108317;1277;21994;-59
2023/08/05 01:38:16;;;;;;;12.10;10.80;;;;;;;26.03;63.83;100369.35;108357;1273;21983;-72
2023/08/05 01:40:43;;;;;;;11.00;9.80;;;;;;;26.05;64.05;100367.27;108337;1282;21993;-60
2023/08/05 01:43:09;;;;;;;10.90;9.70;;;;;;;26.06;64.30;100368.93;108210;1279;21987;-73
2023/08/05 01:45:34;;;;;;;10.70;9.60;;;;;;;26.10;64.57;100369.50;108243;1279;23682;-59
2023/08/05 01:48:00;;;;;;;13.00;11.00;;;;;;;26.17;64.74;100369.08;108357;1282;22060;-74
2023/08/05 01:50:25;;;;;;;12.50;11.20;;;;;;;26.23;65.14;100370.31;108362;1277;21989;-60
2023/08/05 01:52:53;;;;;;;11.20;10.10;;;;;;;26.29;65.14;100370.42;108383;1282;21988;-60
2023/08/05 01:55:19;;;;;;;12.60;11.30;;;;;;;26.37;65.52;100370.72;108362;1282;21989;-60
2023/08/05 01:57:45;;;;;;;12.50;11.20;;;;;;;26.46;65.78;100374.92;108416;1282;22089;-60
2023/08/05 02:00:11;;;;;;;14.60;10.70;;;;;;;26.52;65.60;100378.55;108387;1273;21983;-60
2023/08/05 02:02:37;;;;;;;10.90;8.90;;;;;;;26.58;65.01;100383.85;108416;1276;21977;-75
2023/08/05 02:05:02;;;;;;;10.10;8.30;;;;;;;26.65;64.64;100387.40;108231;1279;21993;-74
2023/08/05 02:07:28;;;;;;;8.80;7.90;;;;;;;26.72;64.65;100390.81;108372;1282;22043;-74
2023/08/05 02:09:54;;;;;;;9.30;8.40;;;;;;;26.78;64.80;100393.22;108401;1281;23634;-74
2023/08/05 02:12:19;;;;;;;9.30;8.40;;;;;;;26.85;64.84;100396.96;108351;1276;22045;-60
2023/08/05 02:14:45;;;;;;;9.40;8.50;;;;;;;26.95;65.10;100400.53;108335;1282;21988;-74
2023/08/05 02:17:11;;;;;;;12.20;8.70;;;;;;;27.05;65.43;100397.20;108390;1281;22127;-75
2023/08/05 02:19:36;;;;;;;21.90;8.30;;;;;;;27.12;65.74;100392.65;108331;1282;21995;-75
2023/08/05 02:22:02;;;;;;;8.70;7.70;;;;;;;27.19;66.21;100391.36;108317;1277;22040;-76
2023/08/05 02:24:27;;;;;;;12.40;8.30;;;;;;;27.25;66.15;100392.67;108362;1281;21982;-60
2023/08/05 02:26:53;;;;;;;9.50;8.60;;;;;;;27.33;66.21;100390.80;108380;1277;21991;-76
2023/08/05 02:29:19;;;;;;;10.70;9.60;;;;;;;27.41;66.39;100389.33;108358;1277;21980;-75
2023/08/05 02:31:44;;;;;;;12.60;9.20;;;;;;;27.49;66.53;100391.45;108370;1275;23640;-76
2023/08/05 02:34:10;;;;;;;11.50;10.20;;;;;;;27.57;66.84;100388.26;108391;1282;22004;-76
2023/08/05 02:36:35;;;;;;;12.50;10.20;;;;;;;27.65;67.46;100394.48;108349;1277;22113;-64
2023/08/05 02:39:01;;;;;;;10.00;8.90;;;;;;;27.75;67.61;100394.14;108353;1282;21992;-59
2023/08/05 02:41:26;;;;;;;11.70;9.50;;;;;;;27.88;67.24;100398.14;108374;1282;22019;-60
2023/08/05 02:43:52;;;;;;;13.30;10.40;;;;;;;27.97;66.96;100395.73;108374;1277;21989;-67
2023/08/05 02:46:17;;;;;;;11.00;9.90;;;;;;;28.07;67.38;100396.89;108232;1282;21984;-59
2023/08/05 02:48:43;;;;;;;14.70;9.70;;;;;;;28.15;67.01;100397.80;108368;1276;21956;-78
2023/08/05 02:51:09;;;;;;;12.10;9.30;;;;;;;28.23;66.93;100395.17;108219;1281;23641;-79
2023/08/05 02:53:34;;;;;;;10.20;9.20;;;;;;;28.31;66.58;100393.54;108407;1280;22060;-80
2023/08/05 02:56:00;;;;;;;9.70;8.70;;;;;;;28.38;67.04;100388.42;108360;1282;23789;-60
2023/08/05 02:58:26;;;;;;;8.30;6.90;;;;;;;28.45;66.79;100393.65;108377;1276;21945;-80
2023/08/05 03:00:52;;;;;;;8.70;6.80;;;;;;;28.50;66.62;100390.25;108427;1282;21984;-59
2023/08/05 03:03:17;;;;;;;7.60;6.90;;;;;;;28.57;66.68;100393.48;108358;1282;21981;-79
2023/08/05 03:05:43;;;;;;;8.20;7.20;;;;;;;28.62;66.70;100391.89;108359;1277;21974;-77
2023/08/05 03:08:10;;;;;;;7.20;6.20;;;;;;;28.68;66.84;100385.11;108387;1282;21982;-60
2023/08/05 03:10:39;;;;;;;6.70;6.10;;;;;;;28.72;66.78;100384.89;108373;1282;21987;-81
2023/08/05 03:13:04;;;;;;;5.80;5.20;;;;;;;28.76;66.30;100386.95;108169;1279;22453;-83
2023/08/05 03:15:30;;;;;;;6.00;5.40;;;;;;;28.79;66.17;100385.04;108288;1282;21983;-80
2023/08/05 03:17:56;;;;;;;6.70;5.40;;;;;;;28.82;66.28;100384.79;108368;1282;21993;-60
2023/08/05 03:20:32;;;;;;;5.90;4.90;;;;;;;28.85;66.40;100381.13;108360;1282;21994;-78
2023/08/05 03:22:57;;;;;;;5.20;4.70;;;;;;;28.89;65.80;100378.41;108144;1279;22096;-82
2023/08/05 03:25:24;;;;;;;5.40;4.90;;;;;;;28.92;65.90;100380.66;108374;1275;21984;-60
2023/08/05 03:27:50;;;;;;;5.80;5.20;;;;;;;28.92;66.30;100382.42;108391;1277;22013;-78
2023/08/05 03:30:16;;;;;;;6.10;5.40;;;;;;;28.93;66.07;100387.44;108378;1282;21995;-80
2023/08/05 03:32:42;;;;;;;7.10;6.30;;;;;;;28.96;66.12;100386.24;108414;1282;23548;-81
2023/08/05 03:35:08;;;;;;;7.10;5.20;;;;;;;29.00;66.62;100382.32;108400;1271;22946;-60
2023/08/05 03:37:33;;;;;;;6.20;5.40;;;;;;;29.02;66.15;100384.13;108391;1282;21994;-59
2023/08/05 03:39:59;;;;;;;6.20;5.40;;;;;;;29.05;65.99;100381.62;108426;1277;21987;-60
2023/08/05 03:42:25;;;;;;;5.50;5.00;;;;;;;29.11;66.29;100380.27;108404;1273;21983;-72
2023/08/05 03:44:50;;;;;;;8.20;6.00;;;;;;;29.15;65.97;100379.19;108422;1277;21987;-72
2023/08/05 03:47:16;;;;;;;8.00;5.40;;;;;;;29.19;66.31;100379.70;108360;1273;21989;-72
2023/08/05 03:49:42;;;;;;;6.70;5.90;;;;;;;29.23;66.12;100378.54;108384;1277;21989;-72
2023/08/05 03:52:08;;;;;;;6.00;5.00;;;;;;;29.28;67.17;100375.23;108366;1282;21992;-71
2023/08/05 03:54:34;;;;;;;5.50;4.70;;;;;;;29.31;67.22;100372.63;108409;1277;21983;-73
2023/08/05 03:56:59;;;;;;;6.40;5.10;;;;;;;29.34;66.77;100369.66;108405;1282;22157;-60
2023/08/05 03:59:25;;;;;;;7.10;5.80;;;;;;;29.37;66.31;100373.13;108420;1281;21989;-61
2023/08/05 04:01:52;;;;;;;5.90;4.80;;;;;;;29.41;66.29;100374.65;108361;1277;21996;-60
2023/08/05 04:04:17;;;;;;;5.30;4.70;;;;;;;29.44;65.91;100370.58;108417;1282;21986;-72
2023/08/05 04:06:45;;;;;;;6.80;4.30;;;;;;;29.48;65.92;100367.50;108360;1280;22022;-60
2023/08/05 04:09:11;;;;;;;6.40;4.80;;;;;;;29.52;66.09;100366.76;108393;1282;21988;-61
2023/08/05 04:11:37;;;;;;;6.80;4.70;;;;;;;29.57;66.39;100367.05;108400;1282;22012;-60
2023/08/05 04:14:03;;;;;;;7.70;5.00;;;;;;;29.62;66.73;100366.77;108378;1277;21981;-73
2023/08/05 04:16:30;;;;;;;6.40;4.90;;;;;;;29.68;67.01;100366.74;108382;1281;21990;-73
2023/08/05 04:18:57;;;;;;;4.50;4.10;;;;;;;29.75;66.72;100367.33;108362;1280;21987;-60
2023/08/05 04:21:27;;;;;;;9.20;4.50;;;;;;;29.83;66.39;100363.89;108391;1282;21986;-60
2023/08/05 04:23:54;;;;;;;6.60;4.20;;;;;;;29.91;66.57;100364.41;108311;1269;21980;-69
2023/08/05 04:26:20;;;;;;;8.20;4.20;;;;;;;30.01;67.28;100360.77;108815;1276;21988;-60
2023/08/05 04:28:46;;;;;;;6.30;4.00;;;;;;;30.11;67.51;100358.25;108362;1282;21983;-60
2023/08/05 04:31:13;;;;;;;5.90;4.30;;;;;;;30.18;67.70;100357.59;108375;1273;21982;-71
2023/08/05 04:33:39;;;;;;;6.90;4.40;;;;;;;30.25;68.02;100358.66;108363;1274;23686;-70
2023/08/05 04:36:04;;;;;;;5.30;3.90;;;;;;;30.34;68.40;100354.98;108353;1282;21974;-60
2023/08/05 04:38:30;;;;;;;10.50;4.30;;;;;;;30.42;68.81;100356.18;108342;1282;21982;-69
2023/08/05 04:40:55;;;;;;;6.70;4.50;;;;;;;30.51;69.00;100356.37;108428;1277;21974;-70
2023/08/05 04:43:21;;;;;;;11.40;5.00;;;;;;;30.60;69.15;100361.33;108207;1283;24351;-61
2023/08/05 04:45:50;;;;;;;6.10;4.10;;;;;;;30.70;69.39;100367.05;108350;1273;21986;-59
2023/08/05 04:48:17;;;;;;;8.40;5.30;;;;;;;30.80;69.53;100369.89;108365;1277;22017;-67
2023/08/05 04:50:43;;;;;;;7.60;4.90;;;;;;;30.91;69.67;100374.29;108454;1282;24323;-58
2023/08/05 04:53:09;;;;;;;5.40;4.70;;;;;;;31.01;69.90;100374.52;108452;1277;21980;-64
2023/08/05 04:55:34;;;;;;;7.10;4.70;;;;;;;31.13;69.71;100372.48;108385;1274;21982;-70
2023/08/05 04:58:00;;;;;;;6.50;4.30;;;;;;;31.22;69.44;100369.95;108336;1276;22445;-60
2023/08/05 05:00:26;;;;;;;5.90;5.20;;;;;;;31.33;69.54;100370.48;108373;1277;22286;-67
2023/08/05 05:02:51;;;;;;;7.10;4.70;;;;;;;31.45;69.41;100367.67;108416;1272;23644;-68
2023/08/05 05:05:17;;;;;;;6.70;4.40;;;;;;;31.57;69.43;100363.58;108454;1282;23709;-68
2023/08/05 05:07:43;;;;;;;9.10;5.30;;;;;;;31.69;69.46;100358.86;108447;1277;21997;-60
2023/08/05 05:10:09;;;;;;;7.80;5.10;;;;;;;31.82;69.19;100356.52;108385;1282;22449;-60
2023/08/05 05:12:34;;;;;;;7.00;4.80;;;;;;;31.95;68.94;100356.95;108412;1282;22036;-73
2023/08/05 05:15:00;;;;;;;7.00;5.70;;;;;;;32.10;68.99;100354.77;108430;1277;21978;-72
2023/08/05 05:17:28;;;;;;;7.50;4.60;;;;;;;32.24;68.68;100354.15;108439;1276;21992;-72
2023/08/05 05:19:54;;;;;;;6.20;4.80;;;;;;;32.39;68.17;100354.96;108563;1281;22025;-72
2023/08/05 05:22:19;;;;;;;6.20;4.30;;;;;;;32.52;67.93;100352.41;108517;1280;21983;-60
2023/08/05 05:24:45;;;;;;;6.20;4.80;;;;;;;32.67;67.46;100346.10;108445;1276;22027;-61
2023/08/05 05:27:14;;;;;;;7.50;4.90;;;;;;;32.83;67.29;100346.20;108466;1276;21980;-60
2023/08/05 05:29:39;;;;;;;5.80;4.50;;;;;;;33.00;66.67;100340.58;108536;1277;21983;-60
2023/08/05 05:32:06;;;;;;;6.90;4.40;;;;;;;33.16;65.85;100333.59;108545;1281;21983;-61
2023/08/05 05:34:31;;;;;;;6.30;4.20;;;;;;;33.31;65.43;100332.88;108491;1280;21988;-60
2023/08/05 05:36:57;;;;;;;4.80;3.80;;;;;;;33.48;64.79;100329.06;108216;1277;21978;-60
2023/08/05 05:39:23;;;;;;;6.00;4.60;;;;;;;33.65;64.03;100330.81;108478;1277;21980;-71
2023/08/05 05:41:48;;;;;;;7.00;4.80;;;;;;;33.79;63.91;100331.39;108460;1280;22140;-64
2023/08/05 05:44:14;;;;;;;7.30;4.90;;;;;;;33.97;63.65;100328.42;108442;1277;21985;-59
2023/08/05 05:46:39;;;;;;;7.30;5.00;;;;;;;34.14;62.67;100328.59;108496;1281;21980;-70
2023/08/05 05:49:05;;;;;;;7.80;4.80;;;;;;;34.31;62.09;100328.73;108457;1280;23616;-60
2023/08/05 05:51:31;;;;;;;6.80;5.10;;;;;;;34.47;61.41;100334.41;108451;1276;21988;-60
2023/08/05 05:53:57;;;;;;;6.20;4.70;;;;;;;34.62;61.06;100339.73;108447;1280;21985;-72
2023/08/05 05:56:23;;;;;;;6.50;4.30;;;;;;;34.78;60.61;100343.60;108467;1281;21981;-69
2023/08/05 05:58:48;;;;;;;6.00;4.30;;;;;;;34.93;60.48;100344.55;108479;1280;21984;-72
2023/08/05 06:01:15;;;;;;;6.50;4.80;;;;;;;35.09;59.99;100339.79;108446;1277;21982;-71
2023/08/05 06:03:42;;;;;;;6.80;5.00;;;;;;;35.27;59.83;100338.39;108464;1277;22035;-71
2023/08/05 06:06:07;;;;;;;10.00;4.60;;;;;;;35.45;59.24;100335.44;108473;1277;21990;-63
2023/08/05 06:08:34;;;;;;;7.30;4.80;;;;;;;35.63;58.84;100338.03;108459;1282;22000;-60
2023/08/05 06:11:02;;;;;;;7.50;4.80;;;;;;;35.82;58.67;100339.98;108457;1281;21984;-71
2023/08/05 06:13:28;;;;;;;5.90;4.60;;;;;;;36.00;58.41;100339.85;108527;1276;23654;-72
2023/08/05 06:15:54;;;;;;;6.30;4.80;;;;;;;36.18;58.15;100341.21;108497;1277;22180;-60
2023/08/05 06:18:19;;;;;;;6.80;5.40;;;;;;;36.37;57.69;100340.51;108475;1272;22032;-60
2023/08/05 06:20:48;;;;;;;6.30;5.40;;;;;;;36.51;56.88;100333.44;108471;1277;21978;-60
2023/08/05 06:23:14;;;;;;;7.30;4.80;;;;;;;36.63;55.67;100329.24;108187;1281;21980;-70
2023/08/05 06:25:40;;;;;;;9.50;4.90;;;;;;;36.74;54.81;100325.15;108505;1281;21982;-59
2023/08/05 06:28:06;;;;;;;8.60;4.50;;;;;;;36.82;54.07;100320.40;108468;1277;21994;-69
2023/08/05 06:30:32;;;;;;;7.70;4.80;;;;;;;36.95;54.54;100317.05;108416;1282;21980;-60
2023/08/05 06:32:57;;;;;;;7.70;4.80;;;;;;;37.12;53.61;100318.22;108442;1282;21978;-60
2023/08/05 06:35:23;;;;;;;5.80;4.60;;;;;;;37.30;52.46;100319.69;108460;1277;21980;-60
2023/08/05 06:37:48;;;;;;;4.90;4.40;;;;;;;37.47;53.16;100319.56;108463;1277;21984;-61
2023/08/05 06:40:15;;;;;;;8.20;4.80;;;;;;;37.65;52.47;100320.65;108464;1280;21983;-73
2023/08/05 06:42:41;;;;;;;7.20;4.40;;;;;;;37.82;51.47;100322.71;108470;1276;21986;-60
2023/08/05 06:45:08;;;;;;;6.60;4.20;;;;;;;37.98;50.87;100323.61;108470;1281;21983;-71
2023/08/05 06:47:35;;;;;;;8.70;4.40;;;;;;;38.13;50.20;100321.98;108518;1279;22733;-60
2023/08/05 06:50:05;;;;;;;4.60;4.10;;;;;;;38.31;49.56;100323.89;108489;1281;21980;-70
2023/08/05 06:52:32;;;;;;;6.90;4.80;;;;;;;38.47;48.91;100326.19;108588;1276;21979;-61
2023/08/05 06:55:00;;;;;;;7.80;4.40;;;;;;;38.62;47.21;100328.58;108506;1277;22007;-60
2023/08/05 06:57:26;;;;;;;7.20;4.10;;;;;;;38.75;47.47;100327.27;108504;1281;22047;-72
2023/08/05 06:59:52;;;;;;;7.20;4.10;;;;;;;38.90;46.97;100324.50;108536;1277;21984;-73
2023/08/05 07:02:18;;;;;;;6.30;4.20;;;;;;;39.07;46.44;100325.34;108460;1281;23679;-61
2023/08/05 07:04:43;;;;;;;5.10;4.10;;;;;;;39.24;45.88;100324.73;108428;1282;21980;-60
2023/08/05 07:07:09;;;;;;;6.10;4.10;;;;;;;39.43;45.45;100323.93;108513;1273;21980;-61
2023/08/05 07:09:35;;;;;;;4.10;3.60;;;;;;;39.59;44.94;100322.41;108447;1281;22015;-74
2023/08/05 07:12:01;;;;;;;6.20;3.90;;;;;;;39.76;44.54;100322.76;108455;1281;23642;-76
2023/08/05 07:14:26;;;;;;;4.10;3.70;;;;;;;39.92;44.07;100324.35;108245;1279;21988;-60
2023/08/05 07:16:52;;;;;;;4.60;3.60;;;;;;;40.02;41.41;100317.48;108443;1282;21991;-75
2023/08/05 07:19:17;;;;;;;5.20;3.70;;;;;;;40.05;41.95;100317.15;108460;1281;23708;-61
2023/08/05 07:21:43;;;;;;;4.40;4.00;;;;;;;40.16;41.86;100314.70;108435;1282;22027;-64
2023/08/05 07:24:08;;;;;;;5.20;3.30;;;;;;;40.31;41.23;100314.94;108465;1277;21983;-73
2023/08/05 07:26:34;;;;;;;6.20;3.70;;;;;;;40.37;40.18;100311.88;108518;1281;23668;-73
2023/08/05 07:29:00;;;;;;;5.30;3.70;;;;;;;40.44;39.13;100313.07;108495;1282;21995;-74
2023/08/05 07:31:25;;;;;;;4.80;3.20;;;;;;;40.42;37.05;100315.92;108441;1282;22029;-61
2023/08/05 07:33:51;;;;;;;5.00;3.80;;;;;;;40.43;37.97;100316.66;108478;1277;21996;-74
2023/08/05 07:36:17;;;;;;;4.20;3.00;;;;;;;40.50;37.39;100315.08;108463;1274;21978;-61
2023/08/05 07:38:45;;;;;;;4.80;3.70;;;;;;;40.64;38.03;100317.10;108503;1281;21987;-73
2023/08/05 07:41:15;;;;;;;4.60;3.50;;;;;;;40.81;36.34;100318.39;108475;1277;22044;-72
2023/08/05 07:43:42;;;;;;;4.10;3.70;;;;;;;40.79;35.15;100313.23;108417;1281;22032;-61
2023/08/05 07:46:08;;;;;;;3.90;3.30;;;;;;;40.86;36.59;100308.94;108501;1276;21987;-61
2023/08/05 07:48:39;;;;;;;5.20;3.30;;;;;;;41.10;36.90;100311.26;108483;1276;21984;-75
2023/08/05 07:51:08;;;;;;;5.00;3.30;;;;;;;41.34;34.18;100310.98;108186;1271;22023;-61
2023/08/05 07:53:35;;;;;;;6.30;3.40;;;;;;;41.47;35.10;100312.50;108505;1280;21990;-73
2023/08/05 07:56:14;;;;;;;6.20;3.20;;;;;;;41.66;34.67;100317.77;108493;1280;21951;-72
2023/08/05 07:58:42;;;;;;;4.30;3.60;;;;;;;41.86;35.28;100317.48;108483;1276;23845;-72
2023/08/05 08:01:08;;;;;;;5.70;3.40;;;;;;;42.08;35.02;100318.43;108505;1282;21983;-61
2023/08/05 08:03:35;;;;;;;4.90;3.50;;;;;;;42.07;32.65;100318.86;108498;1277;23718;-74
2023/08/05 08:06:00;;;;;;;5.00;3.40;;;;;;;42.02;31.92;100319.67;108462;1280;23716;-71
2023/08/05 08:08:26;;;;;;;4.60;3.60;;;;;;;41.91;30.81;100318.95;108492;1282;21989;-72
2023/08/05 08:10:52;;;;;;;5.80;3.70;;;;;;;41.85;31.58;100318.02;108446;1281;22001;-73
2023/08/05 08:13:17;;;;;;;6.70;4.00;;;;;;;41.73;30.43;100313.23;108448;1281;21989;-61
2023/08/05 08:15:43;;;;;;;3.90;3.00;;;;;;;41.53;29.42;100312.22;108451;1277;21989;-61
2023/08/05 08:18:08;;;;;;;4.30;3.40;;;;;;;41.40;28.99;100310.19;108466;1276;21988;-74
2023/08/05 08:20:34;;;;;;;5.90;3.50;;;;;;;41.27;29.64;100318.02;108490;1280;21986;-62
2023/08/05 08:23:00;;;;;;;5.30;3.10;;;;;;;41.34;30.39;100313.73;108428;1281;21984;-71
2023/08/05 08:25:25;;;;;;;4.10;2.90;;;;;;;41.50;29.41;100312.54;108461;1282;23596;-72
2023/08/05 08:27:51;;;;;;;5.60;3.30;;;;;;;41.50;28.00;100306.36;108439;1281;21981;-62
2023/08/05 08:30:16;;;;;;;4.20;2.90;;;;;;;41.59;29.97;100303.08;108403;1270;21981;-61
2023/08/05 08:32:42;;;;;;;4.20;3.00;;;;;;;41.77;28.83;100298.23;108430;1277;22803;-61
2023/08/05 08:35:08;;;;;;;3.90;2.80;;;;;;;41.94;29.25;100292.96;108399;1281;21988;-73
2023/08/05 08:37:34;;;;;;;3.60;2.90;;;;;;;42.10;27.75;100298.21;108415;1280;22168;-75
2023/08/05 08:39:59;;;;;;;6.60;3.00;;;;;;;42.03;27.08;100298.40;108454;1278;22039;-61
2023/08/05 08:42:25;;;;;;;5.30;2.90;;;;;;;42.01;29.04;100300.21;108396;1281;21984;-75
2023/08/05 08:44:51;;;;;;;5.50;3.00;;;;;;;42.24;30.04;100299.34;108482;1281;21981;-61
2023/08/05 08:47:16;;;;;;;4.10;2.90;;;;;;;42.61;29.54;100299.62;108106;1276;21985;-76
2023/08/05 08:49:46;;;;;;;3.70;3.00;;;;;;;42.91;29.21;100294.92;108372;1277;21980;-75
2023/08/05 08:52:13;;;;;;;4.70;2.70;;;;;;;43.13;28.78;100293.52;108402;1278;21984;-74
2023/08/05 08:54:39;;;;;;;4.00;3.00;;;;;;;43.40;29.35;100291.10;108173;1280;22095;-75
2023/08/05 08:57:05;;;;;;;4.40;3.00;;;;;;;43.63;29.06;100291.14;108391;1276;21985;-60
2023/08/05 08:59:32;;;;;;;6.90;3.20;;;;;;;43.71;27.96;100288.74;108428;1281;21989;-61
2023/08/05 09:01:57;;;;;;;5.60;3.30;;;;;;;43.68;28.34;100289.02;108368;1276;21984;-60
2023/08/05 09:04:23;;;;;;;4.00;2.80;;;;;;;43.78;28.91;100287.52;108200;1282;21987;-75
2023/08/05 09:06:49;;;;;;;4.80;3.40;;;;;;;43.93;27.70;100287.80;108397;1279;22165;-60
2023/08/05 09:09:14;;;;;;;6.60;3.50;;;;;;;43.92;26.42;100287.23;108170;1282;22173;-75
2023/08/05 09:11:40;;;;;;;3.20;2.70;;;;;;;43.88;27.45;100288.46;108042;1282;23728;-73
2023/08/05 09:14:06;;;;;;;5.50;2.90;;;;;;;43.90;26.46;100291.67;108396;1281;21988;-60
2023/08/05 09:16:31;;;;;;;3.80;2.70;;;;;;;44.03;27.84;100286.86;108419;1276;21985;-60
2023/08/05 09:18:57;;;;;;;6.80;2.90;;;;;;;44.30;28.02;100284.11;108386;1273;21983;-60
2023/08/05 09:21:27;;;;;;;4.60;2.90;;;;;;;44.58;28.07;100283.84;108492;1277;21983;-61
2023/08/05 09:23:58;;;;;;;4.10;2.90;;;;;;;44.86;27.98;100285.42;108594;1282;21985;-73
2023/08/05 09:26:28;;;;;;;5.70;2.90;;;;;;;45.11;27.88;100281.25;108171;1280;23638;-72
2023/08/05 09:28:54;;;;;;;;;;;;;;;45.33;27.64;100281.52;108509;1271;21973;-74
2023/08/05 09:31:20;;;;;;;3.00;2.50;;;;;;;45.48;27.32;100279.71;108467;1277;22004;-60
2023/08/05 09:33:45;;;;;;;6.40;2.80;;;;;;;45.50;27.29;100273.51;108444;1274;21983;-60
2023/08/05 09:36:12;;;;;;;3.60;2.50;;;;;;;45.48;26.70;100275.81;108450;1281;22030;-60
2023/08/05 09:38:41;;;;;;;5.20;2.90;;;;;;;45.51;26.94;100272.90;108525;1277;21982;-73
2023/08/05 09:41:07;;;;;;;3.70;2.30;;;;;;;45.57;26.92;100273.27;108271;1282;23609;-73
2023/08/05 09:43:38;;;;;;;4.90;2.50;;;;;;;45.70;26.81;100276.32;108402;1277;22164;-73
2023/08/05 09:46:05;;;;;;;3.50;2.20;;;;;;;45.73;25.23;100275.52;108414;1282;21980;-61
2023/08/05 09:48:43;;;;;;;3.70;2.50;;;;;;;45.49;25.96;100275.81;108422;1277;21982;-72
2023/08/05 09:51:18;;;;;;;3.50;2.10;;;;;;;45.41;25.28;100273.98;108365;1271;21985;-73
2023/08/05 09:53:46;;;;;;;3.60;1.90;;;;;;;45.47;25.55;100275.69;108408;1282;23112;-61
2023/08/05 09:56:12;;;;;;;4.70;2.60;;;;;;;45.28;24.88;100277.38;108417;1281;22021;-73
2023/08/05 09:58:38;;;;;;;5.00;2.90;;;;;;;44.95;24.62;100276.98;108148;1282;21983;-60
2023/08/05 10:01:07;;;;;;;4.40;2.30;;;;;;;44.60;24.33;100270.40;108129;1282;22164;-60
2023/08/05 10:03:37;;;;;;;5.70;2.60;;;;;;;44.28;24.62;100263.76;108451;1277;21987;-61
2023/08/05 10:06:07;;;;;;;4.30;2.40;;;;;;;44.26;24.48;100265.90;108440;1277;21994;-73
2023/08/05 10:08:35;;;;;;;4.60;2.30;;;;;;;44.10;24.31;100258.66;108475;1274;21983;-77
2023/08/05 10:11:01;;;;;;;2.90;2.20;;;;;;;44.00;25.66;100260.94;108186;1277;23638;-72
2023/08/05 10:13:26;;;;;;;3.20;2.50;;;;;;;44.25;26.35;100259.37;108427;1274;21971;-60
2023/08/05 10:15:53;;;;;;;3.60;2.30;;;;;;;44.70;26.13;100265.64;108153;1281;21985;-60
2023/08/05 10:18:18;;;;;;;5.50;2.60;;;;;;;44.96;25.45;100264.63;108225;1273;21992;-73
2023/08/05 10:20:49;;;;;;;4.90;2.30;;;;;;;45.14;25.88;100260.99;108416;1281;21985;-75
2023/08/05 10:23:14;;;;;;;4.70;2.40;;;;;;;45.23;24.62;100271.69;108451;1280;21984;-73
2023/08/05 10:25:44;;;;;;;5.00;2.60;;;;;;;44.99;23.54;100269.56;108463;1280;22023;-60
2023/08/05 10:28:10;;;;;;;5.80;2.60;;;;;;;44.58;22.77;100267.30;108577;1272;21979;-72
2023/08/05 10:30:42;;;;;;;10.10;3.00;;;;;;;44.21;22.86;100268.11;108564;1277;23637;-71
2023/08/05 10:33:08;;;;;;;4.80;2.50;;;;;;;44.02;23.47;100265.80;108443;1281;22016;-74
2023/08/05 10:35:39;;;;;;;8.00;2.50;;;;;;;43.88;23.02;100258.80;108150;1282;21980;-61
2023/08/05 10:38:16;;;;;;;4.50;2.50;;;;;;;43.66;22.82;100255.93;108463;1280;21984;-73
2023/08/05 10:41:02;;;;;;;5.60;2.50;;;;;;;43.45;22.91;100248.79;108469;1282;21985;-73
2023/08/05 10:43:30;;;;;;;3.90;2.40;;;;;;;43.44;23.97;100244.55;108421;1281;23640;-61
2023/08/05 10:46:14;;;;;;;4.40;2.50;;;;;;;43.62;24.41;100243.42;108207;1282;21995;-61
2023/08/05 10:48:47;;;;;;;4.20;2.80;;;;;;;43.98;24.02;100241.96;108454;1282;21990;-74
2023/08/05 10:51:17;;;;;;;3.40;2.60;;;;;;;44.29;24.09;100233.83;108474;1277;21992;-61
2023/08/05 10:53:43;;;;;;;;;;;;;;;44.53;24.01;100233.20;108409;1276;22010;-73
2023/08/05 10:56:12;;;;;;;7.50;3.30;;;;;;;44.69;23.47;100232.88;108407;1274;21988;-61
2023/08/05 10:58:50;;;;;;;3.80;2.90;;;;;;;44.66;23.22;100230.78;108400;1282;21977;-74
2023/08/05 11:01:17;;;;;;;5.50;3.40;;;;;;;44.82;24.14;100223.90;108386;1279;21980;-72
2023/08/05 11:03:50;;;;;;;6.00;3.30;;;;;;;44.99;22.60;100219.39;108409;1277;22443;-60
2023/08/05 11:06:21;;;;;;;6.80;3.20;;;;;;;44.99;23.39;100210.83;108381;1282;21983;-73
2023/08/05 11:08:47;;;;;;;4.60;3.60;;;;;;;44.96;23.15;100209.05;108451;1280;23212;-60
2023/08/05 11:11:13;;;;;;;6.80;3.60;;;;;;;44.84;23.21;100201.46;108425;1278;22159;-61
2023/08/05 11:13:43;;;;;;;5.50;4.10;;;;;;;44.80;22.94;100199.33;108432;1282;23563;-73